createdAt,value
2023-05-21T00:01:19.332Z,56.84
2023-05-21T00:02:49.241Z,55.91
2023-05-21T00:04:13.060Z,56.52
2023-05-21T00:05:49.156Z,57.43
2023-05-21T00:07:23.488Z,58.72
2023-05-21T00:08:45.228Z,59.46
2023-05-21T00:10:30.230Z,60.31
2023-05-21T00:12:05.675Z,61.00
2023-05-21T00:13:39.276Z,61.75
2023-05-21T00:15:15.106Z,62.11
2023-05-21T00:16:44.879Z,63.15
2023-05-21T00:18:18.276Z,62.77
2023-05-21T00:19:49.588Z,60.21
2023-05-21T00:21:42.868Z,56.68
2023-05-21T00:23:18.650Z,55.78
2023-05-21T00:24:54.313Z,56.56
2023-05-21T00:26:39.591Z,57.61
2023-05-21T00:28:12.808Z,58.84
2023-05-21T00:29:37.216Z,59.75
2023-05-21T00:31:10.613Z,60.66
2023-05-21T00:32:46.621Z,61.16
2023-05-21T00:34:08.497Z,61.75
2023-05-21T00:35:38.322Z,62.25
2023-05-21T00:37:02.730Z,63.33
2023-05-21T00:38:39.487Z,62.75
2023-05-21T00:40:25.299Z,59.48
2023-05-21T00:42:00.387Z,56.15
2023-05-21T00:43:26.165Z,55.73
2023-05-21T00:44:58.238Z,56.42
2023-05-21T00:46:31.688Z,57.72
2023-05-21T00:48:04.339Z,58.68
2023-05-21T00:49:38.282Z,59.68
2023-05-21T00:51:11.589Z,60.52
2023-05-21T00:52:58.561Z,61.10
2023-05-21T00:54:20.730Z,62.02
2023-05-21T00:55:55.925Z,62.72
2023-05-21T00:57:31.512Z,63.16
2023-05-21T00:59:22.004Z,60.71
2023-05-21T01:00:59.230Z,57.05
2023-05-21T01:02:34.607Z,55.75
2023-05-21T01:04:29.012Z,56.45
2023-05-21T01:06:02.374Z,57.82
2023-05-21T01:07:34.160Z,58.87
2023-05-21T01:09:18.978Z,59.81
2023-05-21T01:11:04.003Z,60.89
2023-05-21T01:12:48.737Z,61.64
2023-05-21T01:14:22.332Z,62.24
2023-05-21T01:15:59.133Z,63.52
2023-05-21T01:17:24.284Z,62.70
2023-05-21T01:19:05.492Z,59.55
2023-05-21T01:20:43.652Z,56.19
2023-05-21T01:22:19.326Z,55.51
2023-05-21T01:23:55.681Z,56.56
2023-05-21T01:25:28.990Z,57.89
2023-05-21T01:27:17.623Z,59.00
2023-05-21T01:29:03.557Z,60.11
2023-05-21T01:30:59.027Z,60.97
2023-05-21T01:32:35.039Z,61.81
2023-05-21T01:34:08.847Z,62.45
2023-05-21T01:35:43.049Z,63.50
2023-05-21T01:37:12.605Z,61.86
2023-05-21T01:38:34.726Z,58.79
2023-05-21T01:39:56.591Z,56.24
2023-05-21T01:41:32.435Z,55.79
2023-05-21T01:43:19.743Z,56.75
2023-05-21T01:44:53.101Z,57.97
2023-05-21T01:46:33.853Z,59.20
2023-05-21T01:48:09.622Z,60.30
2023-05-21T01:49:41.056Z,61.11
2023-05-21T01:51:26.194Z,61.95
2023-05-21T01:53:14.944Z,62.73
2023-05-21T01:55:06.905Z,63.38
2023-05-21T01:56:45.392Z,60.57
2023-05-21T01:58:22.150Z,57.28
2023-05-21T01:59:55.919Z,55.74
2023-05-21T02:01:30.359Z,56.53
2023-05-21T02:03:06.551Z,57.62
2023-05-21T02:05:00.069Z,58.83
2023-05-21T02:06:45.171Z,60.01
2023-05-21T02:08:31.573Z,61.04
2023-05-21T02:10:01.181Z,61.76
2023-05-21T02:11:32.170Z,62.38
2023-05-21T02:13:05.473Z,63.42
2023-05-21T02:14:39.286Z,62.02
2023-05-21T02:16:26.461Z,58.96
2023-05-21T02:18:07.188Z,55.73
2023-05-21T02:19:45.682Z,55.98
2023-05-21T02:21:30.674Z,56.99
2023-05-21T02:23:20.079Z,58.36
2023-05-21T02:25:00.560Z,59.62
2023-05-21T02:26:36.615Z,60.46
2023-05-21T02:28:11.658Z,61.26
2023-05-21T02:29:44.762Z,62.06
2023-05-21T02:31:22.049Z,62.85
2023-05-21T02:32:55.489Z,62.95
2023-05-21T02:34:43.871Z,60.26
2023-05-21T02:36:08.783Z,56.73
2023-05-21T02:37:49.427Z,55.55
2023-05-21T02:39:20.722Z,56.25
2023-05-21T02:41:08.212Z,57.39
2023-05-21T02:42:42.016Z,58.67
2023-05-21T02:44:23.953Z,59.73
2023-05-21T02:46:06.938Z,60.46
2023-05-21T02:47:42.750Z,61.30
2023-05-21T02:49:17.583Z,62.03
2023-05-21T02:50:58.649Z,62.69
2023-05-21T02:52:28.043Z,63.42
2023-05-21T02:54:04.592Z,61.30
2023-05-21T02:55:38.278Z,57.95
2023-05-21T02:57:12.094Z,55.55
2023-05-21T02:58:46.323Z,55.77
2023-05-21T03:00:19.370Z,56.84
2023-05-21T03:02:05.565Z,57.91
2023-05-21T03:03:41.688Z,59.12
2023-05-21T03:05:15.361Z,59.91
2023-05-21T03:07:00.885Z,60.64
2023-05-21T03:08:34.618Z,61.26
2023-05-21T03:10:10.046Z,61.99
2023-05-21T03:11:45.517Z,62.59
2023-05-21T03:13:31.292Z,63.36
2023-05-21T03:15:11.543Z,60.90
2023-05-21T03:16:53.440Z,57.38
2023-05-21T03:18:36.039Z,55.31
2023-05-21T03:20:21.085Z,55.93
2023-05-21T03:21:55.973Z,57.14
2023-05-21T03:23:30.076Z,58.46
2023-05-21T03:25:07.281Z,59.24
2023-05-21T03:26:52.459Z,60.25
2023-05-21T03:28:37.807Z,61.07
2023-05-21T03:30:19.435Z,61.67
2023-05-21T03:32:09.508Z,62.55
2023-05-21T03:33:45.772Z,63.36
2023-05-21T03:35:37.078Z,60.86
2023-05-21T03:37:01.665Z,57.63
2023-05-21T03:38:37.118Z,55.70
2023-05-21T03:40:24.432Z,55.92
2023-05-21T03:42:12.338Z,57.19
2023-05-21T03:43:42.513Z,58.38
2023-05-21T03:45:12.144Z,59.31
2023-05-21T03:47:35.604Z,60.69
2023-05-21T03:49:02.777Z,61.27
2023-05-21T03:50:48.343Z,61.81
2023-05-21T03:52:39.046Z,62.45
2023-05-21T03:54:12.178Z,63.51
2023-05-21T03:56:00.074Z,61.24
2023-05-21T03:57:45.443Z,57.43
2023-05-21T03:59:33.885Z,55.47
2023-05-21T04:01:22.488Z,56.29
2023-05-21T04:02:54.694Z,57.41
2023-05-21T04:04:29.538Z,58.29
2023-05-21T04:06:02.798Z,59.20
2023-05-21T04:07:49.928Z,59.88
2023-05-21T04:09:31.167Z,60.75
2023-05-21T04:11:16.321Z,61.37
2023-05-21T04:12:57.495Z,61.56
2023-05-21T04:14:33.335Z,62.04
2023-05-21T04:16:10.548Z,62.50
2023-05-21T04:17:45.363Z,63.20
2023-05-21T04:19:21.544Z,61.00
2023-05-21T04:20:48.540Z,57.79
2023-05-21T04:22:35.049Z,55.51
2023-05-21T04:23:59.940Z,55.46
2023-05-21T04:25:57.601Z,56.43
2023-05-21T04:27:43.083Z,57.67
2023-05-21T04:29:16.743Z,58.44
2023-05-21T04:30:50.411Z,59.28
2023-05-21T04:32:26.099Z,59.81
2023-05-21T04:34:11.243Z,60.45
2023-05-21T04:35:45.002Z,60.69
2023-05-21T04:37:39.139Z,61.16
2023-05-21T04:39:12.532Z,61.48
2023-05-21T04:40:45.696Z,61.14
2023-05-21T04:42:27.602Z,61.84
2023-05-21T04:44:13.888Z,62.21
2023-05-21T04:45:49.367Z,62.30
2023-05-21T04:47:23.097Z,62.99
2023-05-21T04:49:07.914Z,63.11
2023-05-21T04:50:45.422Z,60.66
2023-05-21T04:52:19.125Z,56.77
2023-05-21T04:53:55.716Z,55.30
2023-05-21T04:55:41.155Z,55.93
2023-05-21T04:57:26.324Z,57.05
2023-05-21T04:59:07.489Z,57.63
2023-05-21T05:00:40.916Z,57.71
2023-05-21T05:02:09.964Z,58.55
2023-05-21T05:03:55.379Z,59.29
2023-05-21T05:05:17.087Z,59.55
2023-05-21T05:06:38.797Z,59.71
2023-05-21T05:08:16.074Z,59.97
2023-05-21T05:10:01.008Z,60.34
2023-05-21T05:11:41.772Z,60.62
2023-05-21T05:13:19.420Z,60.74
2023-05-21T05:15:02.063Z,60.89
2023-05-21T05:16:26.292Z,61.08
2023-05-21T05:17:56.484Z,61.50
2023-05-21T05:19:32.913Z,61.57
2023-05-21T05:20:55.109Z,61.75
2023-05-21T05:22:40.405Z,61.40
2023-05-21T05:24:25.720Z,61.51
2023-05-21T05:25:59.332Z,61.77
2023-05-21T05:27:42.557Z,61.88
2023-05-21T05:29:36.242Z,62.02
2023-05-21T05:33:37.048Z,61.75
2023-05-21T05:35:10.767Z,61.92
2023-05-21T05:36:57.804Z,61.75
2023-05-21T05:38:43.157Z,61.68
2023-05-21T05:40:19.340Z,61.43
2023-05-21T05:42:14.225Z,61.61
2023-05-21T05:43:43.885Z,61.76
2023-05-21T05:45:30.079Z,62.00
2023-05-21T05:47:15.628Z,61.81
2023-05-21T05:48:51.404Z,61.78
2023-05-21T05:50:35.476Z,61.16
2023-05-21T05:52:25.073Z,61.46
2023-05-21T05:53:49.433Z,61.09
2023-05-21T05:55:25.115Z,60.93
2023-05-21T05:57:18.840Z,61.11
2023-05-21T05:59:04.226Z,61.00
2023-05-21T06:00:36.483Z,60.51
2023-05-21T06:02:02.035Z,59.95
2023-05-21T06:03:47.367Z,60.91
2023-05-21T06:05:23.980Z,60.90
2023-05-21T06:06:59.881Z,60.94
2023-05-21T06:08:37.354Z,61.22
2023-05-21T06:10:26.124Z,60.92
2023-05-21T06:12:01.746Z,61.06
2023-05-21T06:13:35.656Z,61.13
2023-05-21T06:15:20.736Z,60.39
2023-05-21T06:16:53.883Z,59.56
2023-05-21T06:18:32.293Z,59.56
2023-05-21T06:20:17.623Z,59.35
2023-05-21T06:21:51.424Z,59.39
2023-05-21T06:23:32.501Z,58.87
2023-05-21T06:25:08.265Z,58.36
2023-05-21T06:26:42.456Z,58.38
2023-05-21T06:28:15.908Z,57.70
2023-05-21T06:29:58.091Z,57.95
2023-05-21T06:31:22.363Z,57.22
2023-05-21T06:33:13.809Z,57.20
2023-05-21T06:34:45.331Z,56.43
2023-05-21T06:36:19.069Z,56.68
2023-05-21T06:37:52.622Z,57.41
2023-05-21T06:39:27.148Z,57.19
2023-05-21T06:41:04.036Z,56.98
2023-05-21T06:43:17.124Z,56.00
2023-05-21T06:44:57.700Z,55.50
2023-05-21T06:46:31.488Z,54.73
2023-05-21T06:48:04.346Z,55.20
2023-05-21T06:49:40.151Z,55.15
2023-05-21T06:51:15.984Z,55.42
2023-05-21T06:52:51.664Z,54.83
2023-05-21T06:54:26.933Z,54.62
2023-05-21T06:56:01.008Z,53.91
2023-05-21T06:57:54.776Z,54.49
2023-05-21T06:59:16.421Z,53.76
2023-05-21T07:00:57.944Z,53.35
2023-05-21T07:02:40.622Z,54.57
2023-05-21T07:04:13.936Z,54.67
2023-05-21T07:05:50.000Z,54.35
2023-05-21T07:07:27.574Z,54.15
2023-05-21T07:09:03.382Z,54.42
2023-05-21T07:10:39.391Z,53.82
2023-05-21T07:12:12.595Z,53.00
2023-05-21T07:13:57.693Z,53.55
2023-05-21T07:15:31.425Z,52.97
2023-05-21T07:17:12.214Z,52.93
2023-05-21T07:18:48.134Z,52.42
2023-05-21T07:20:21.347Z,51.77
2023-05-21T07:22:02.389Z,52.08
2023-05-21T07:23:47.703Z,51.05
2023-05-21T07:25:26.748Z,50.36
2023-05-21T07:26:55.389Z,50.72
2023-05-21T07:28:29.148Z,50.61
2023-05-21T07:30:04.962Z,49.88
2023-05-21T07:31:38.549Z,50.67
2023-05-21T07:33:24.340Z,50.63
2023-05-21T07:34:48.236Z,51.04
2023-05-21T07:36:12.901Z,50.24
2023-05-21T07:37:58.247Z,50.40
2023-05-21T07:39:31.461Z,51.06
2023-05-21T07:41:12.518Z,51.68
2023-05-21T07:42:58.610Z,50.61
2023-05-21T07:44:34.307Z,51.18
2023-05-21T07:45:59.374Z,50.55
2023-05-21T07:47:44.540Z,49.74
2023-05-21T07:49:16.319Z,50.02
2023-05-21T07:50:54.835Z,49.13
2023-05-21T07:52:28.444Z,48.72
2023-05-21T07:54:02.056Z,48.29
2023-05-21T07:55:50.645Z,47.98
2023-05-21T07:57:18.397Z,48.79
2023-05-21T07:58:59.513Z,48.13
2023-05-21T08:00:40.783Z,48.34
2023-05-21T08:02:26.095Z,48.41
2023-05-21T08:04:07.209Z,47.85
2023-05-21T08:05:57.458Z,47.25
2023-05-21T08:07:32.092Z,47.57
2023-05-21T08:09:13.360Z,47.76
2023-05-21T08:10:47.792Z,47.86
2023-05-21T08:12:18.707Z,46.85
2023-05-21T08:13:53.762Z,46.88
2023-05-21T08:15:38.781Z,46.54
2023-05-21T08:17:14.803Z,47.17
2023-05-21T08:18:48.329Z,46.76
2023-05-21T08:20:33.419Z,46.60
2023-05-21T08:22:06.837Z,45.10
2023-05-21T08:23:31.957Z,45.52
2023-05-21T08:25:17.577Z,45.70
2023-05-21T08:26:53.593Z,44.86
2023-05-21T08:28:29.303Z,44.51
2023-05-21T08:30:05.094Z,44.04
2023-05-21T08:31:50.996Z,43.95
2023-05-21T08:33:31.906Z,44.19
2023-05-21T08:34:56.383Z,44.72
2023-05-21T08:37:10.908Z,45.34
2023-05-21T08:39:27.936Z,44.34
2023-05-21T08:41:11.092Z,44.27
2023-05-21T08:43:00.049Z,43.20
2023-05-21T08:44:50.224Z,44.84
2023-05-21T08:46:36.524Z,43.71
2023-05-21T08:48:21.409Z,42.96
2023-05-21T08:49:57.333Z,43.11
2023-05-21T08:51:39.429Z,42.60
2023-05-21T08:53:28.325Z,43.18
2023-05-21T08:55:15.325Z,41.86
2023-05-21T08:56:49.216Z,42.27
2023-05-21T08:58:13.588Z,41.81
2023-05-21T08:59:43.155Z,42.41
2023-05-21T09:01:19.295Z,41.98
2023-05-21T09:02:50.004Z,42.37
2023-05-21T09:04:35.600Z,43.03
2023-05-21T09:06:23.870Z,42.99
2023-05-21T09:08:09.030Z,42.25
2023-05-21T09:10:05.059Z,42.65
2023-05-21T09:11:46.701Z,41.44
2023-05-21T09:13:22.117Z,40.96
2023-05-21T09:15:02.604Z,40.20
2023-05-21T09:18:35.051Z,41.29
2023-05-21T09:20:23.374Z,41.58
2023-05-21T09:21:55.201Z,40.46
2023-05-21T09:23:32.997Z,41.04
2023-05-21T09:25:07.950Z,41.65
2023-05-21T09:26:44.184Z,41.29
2023-05-21T09:28:29.227Z,41.60
2023-05-21T09:29:58.411Z,41.60
2023-05-21T09:31:31.916Z,40.33
2023-05-21T09:33:04.678Z,39.25
2023-05-21T09:34:33.962Z,39.61
2023-05-21T09:35:55.722Z,39.51
2023-05-21T09:37:32.226Z,40.25
2023-05-21T09:39:07.758Z,41.26
2023-05-21T09:40:39.976Z,41.81
2023-05-21T09:42:25.196Z,41.36
2023-05-21T09:43:57.268Z,40.92
2023-05-21T09:45:33.342Z,40.76
2023-05-21T09:47:06.752Z,40.87
2023-05-21T09:48:41.850Z,40.38
2023-05-21T09:50:22.199Z,41.13
2023-05-21T09:51:55.513Z,40.69
2023-05-21T09:53:17.304Z,40.90
2023-05-21T09:54:57.987Z,40.53
2023-05-21T09:56:22.424Z,40.27
2023-05-21T09:57:50.608Z,39.44
2023-05-21T09:59:31.713Z,38.84
2023-05-21T10:01:17.746Z,38.62
2023-05-21T10:02:50.938Z,38.02
2023-05-21T10:04:35.899Z,37.63
2023-05-21T10:06:11.788Z,37.60
2023-05-21T10:07:44.946Z,37.48
2023-05-21T10:09:30.053Z,37.75
2023-05-21T10:11:03.740Z,37.86
2023-05-21T10:12:37.140Z,37.68
2023-05-21T10:14:22.337Z,37.08
2023-05-21T10:15:58.177Z,37.15
2023-05-21T10:17:31.696Z,37.09
2023-05-21T10:19:16.845Z,37.05
2023-05-21T10:20:50.210Z,37.38
2023-05-21T10:22:25.710Z,36.97
2023-05-21T10:24:01.934Z,37.10
2023-05-21T10:25:35.763Z,36.54
2023-05-21T10:27:11.283Z,37.90
2023-05-21T10:28:45.567Z,37.82
2023-05-21T10:30:22.062Z,38.79
2023-05-21T10:31:55.882Z,38.48
2023-05-21T10:33:29.146Z,37.75
2023-05-21T10:34:55.704Z,38.27
2023-05-21T10:36:25.223Z,38.67
2023-05-21T10:37:49.631Z,38.50
2023-05-21T10:39:34.529Z,37.71
2023-05-21T10:41:04.968Z,37.70
2023-05-21T10:42:46.047Z,36.86
2023-05-21T10:44:31.569Z,38.44
2023-05-21T10:45:53.362Z,37.63
2023-05-21T10:47:29.146Z,37.73
2023-05-21T10:49:14.742Z,37.11
2023-05-21T10:50:56.185Z,38.03
2023-05-21T10:52:22.809Z,36.61
2023-05-21T10:53:58.874Z,36.34
2023-05-21T10:55:31.946Z,36.30
2023-05-21T10:57:05.011Z,36.79
2023-05-21T10:58:46.172Z,36.59
2023-05-21T11:00:28.614Z,36.06
2023-05-21T11:01:53.398Z,37.07
2023-05-21T11:03:20.421Z,37.41
2023-05-21T11:04:56.164Z,37.19
2023-05-21T11:06:29.932Z,36.97
2023-05-21T11:08:05.765Z,37.21
2023-05-21T11:09:50.914Z,37.29
2023-05-21T11:11:31.731Z,36.76
2023-05-21T11:13:05.951Z,36.51
2023-05-21T11:14:35.150Z,36.76
2023-05-21T11:16:11.104Z,37.32
2023-05-21T11:17:52.318Z,37.64
2023-05-21T11:19:26.040Z,36.27
2023-05-21T11:20:59.512Z,36.43
2023-05-21T11:22:25.737Z,35.36
2023-05-21T11:23:47.473Z,35.78
2023-05-21T11:25:20.805Z,35.87
2023-05-21T11:26:50.225Z,36.07
2023-05-21T11:28:11.862Z,35.08
2023-05-21T11:29:45.527Z,35.78
2023-05-21T11:31:19.516Z,35.03
2023-05-21T11:32:53.385Z,34.21
2023-05-21T11:34:29.357Z,34.53
2023-05-21T11:35:51.584Z,34.16
2023-05-21T11:39:15.703Z,34.80
2023-05-21T11:41:06.277Z,34.00
2023-05-21T11:42:42.370Z,33.92
2023-05-21T11:44:04.145Z,33.54
2023-05-21T11:45:26.282Z,33.74
2023-05-21T11:47:11.367Z,33.44
2023-05-21T11:48:46.692Z,33.92
2023-05-21T11:50:18.229Z,34.31
2023-05-21T11:51:44.468Z,33.60
2023-05-21T11:53:08.988Z,35.32
2023-05-21T11:54:45.666Z,35.71
2023-05-21T11:56:11.962Z,34.40
2023-05-21T11:57:48.063Z,35.43
2023-05-21T11:59:28.709Z,35.39
2023-05-21T12:01:13.960Z,33.51
2023-05-21T12:02:59.128Z,33.20
2023-05-21T12:04:32.502Z,33.41
2023-05-21T12:06:03.995Z,32.08
2023-05-21T12:07:44.537Z,32.70
2023-05-21T12:09:18.155Z,32.50
2023-05-21T12:10:47.380Z,31.74
2023-05-21T12:12:13.231Z,31.69
2023-05-21T12:13:49.907Z,31.73
2023-05-21T12:15:13.852Z,33.22
2023-05-21T12:16:47.368Z,34.18
2023-05-21T12:18:27.796Z,33.23
2023-05-21T12:20:13.741Z,31.37
2023-05-21T12:21:47.044Z,31.78
2023-05-21T12:23:20.336Z,31.30
2023-05-21T12:25:01.372Z,31.49
2023-05-21T12:26:37.333Z,31.31
2023-05-21T12:28:13.233Z,31.91
2023-05-21T12:29:46.383Z,32.57
2023-05-21T12:31:22.020Z,32.37
2023-05-21T12:32:58.150Z,31.29
2023-05-21T12:34:27.600Z,32.18
2023-05-21T12:36:15.029Z,32.62
2023-05-21T12:38:02.098Z,31.47
2023-05-21T12:39:37.033Z,31.15
2023-05-21T12:41:18.021Z,30.04
2023-05-21T12:42:51.857Z,29.68
2023-05-21T12:44:25.193Z,30.18
2023-05-21T12:45:47.364Z,30.52
2023-05-21T12:47:29.983Z,31.17
2023-05-21T12:49:23.728Z,29.97
2023-05-21T12:50:53.109Z,30.95
2023-05-21T12:52:27.316Z,30.50
2023-05-21T12:53:51.129Z,31.19
2023-05-21T12:55:25.589Z,31.35
2023-05-21T12:57:01.118Z,30.60
2023-05-21T12:58:37.324Z,30.46
2023-05-21T13:00:29.797Z,30.39
2023-05-21T13:01:53.734Z,30.91
2023-05-21T13:03:27.944Z,31.14
2023-05-21T13:04:51.665Z,30.89
2023-05-21T13:06:34.273Z,31.40
2023-05-21T13:08:19.137Z,30.64
2023-05-21T13:09:54.057Z,30.21
2023-05-21T13:11:34.772Z,30.84
2023-05-21T13:13:15.885Z,30.44
2023-05-21T13:14:56.619Z,29.99
2023-05-21T13:16:29.877Z,29.31
2023-05-21T13:18:12.022Z,29.94
2023-05-21T13:19:52.881Z,29.72
2023-05-21T13:21:28.643Z,29.65
2023-05-21T13:23:13.756Z,30.40
2023-05-21T13:24:40.104Z,28.72
2023-05-21T13:26:13.998Z,28.94
2023-05-21T13:27:38.021Z,29.47
2023-05-21T13:29:02.168Z,30.04
2023-05-21T13:30:43.047Z,29.08
2023-05-21T13:32:24.260Z,29.87
2023-05-21T13:34:10.106Z,29.01
2023-05-21T13:36:00.015Z,28.78
2023-05-21T13:37:45.834Z,28.34
2023-05-21T13:39:31.112Z,28.34
2023-05-21T13:41:06.988Z,28.30
2023-05-21T13:42:47.657Z,27.59
2023-05-21T13:44:09.367Z,28.58
2023-05-21T13:45:44.819Z,29.55
2023-05-21T13:47:29.976Z,28.67
2023-05-21T13:49:03.610Z,28.70
2023-05-21T13:50:52.577Z,27.94
2023-05-21T13:52:22.008Z,27.68
2023-05-21T13:53:46.116Z,27.32
2023-05-21T13:55:19.478Z,27.23
2023-05-21T13:56:55.152Z,27.89
2023-05-21T13:58:40.376Z,28.55
2023-05-21T14:00:09.891Z,28.79
2023-05-21T14:01:59.021Z,30.16
2023-05-21T14:03:44.230Z,29.20
2023-05-21T14:05:29.177Z,29.45
2023-05-21T14:06:53.533Z,29.61
2023-05-21T14:08:29.333Z,28.66
2023-05-21T14:10:02.802Z,28.42
2023-05-21T14:11:38.255Z,28.46
2023-05-21T14:13:18.464Z,28.26
2023-05-21T14:14:43.982Z,28.69
2023-05-21T14:16:28.860Z,28.40
2023-05-21T14:18:10.106Z,28.62
2023-05-21T14:19:43.812Z,29.49
2023-05-21T14:21:15.019Z,28.44
2023-05-21T14:22:46.260Z,27.69
2023-05-21T14:24:22.044Z,28.63
2023-05-21T14:26:07.222Z,28.00
2023-05-21T14:27:31.472Z,27.56
2023-05-21T14:29:18.656Z,27.84
2023-05-21T14:30:47.429Z,27.52
2023-05-21T14:32:32.500Z,27.58
2023-05-21T14:34:07.938Z,27.17
2023-05-21T14:35:32.356Z,27.61
2023-05-21T14:37:01.451Z,27.58
2023-05-21T14:38:28.997Z,26.31
2023-05-21T14:40:14.251Z,26.27
2023-05-21T14:41:43.415Z,26.27
2023-05-21T14:43:25.153Z,26.39
2023-05-21T14:45:18.647Z,26.82
2023-05-21T14:47:10.013Z,26.27
2023-05-21T14:48:55.807Z,26.14
2023-05-21T14:50:36.810Z,26.12
2023-05-21T14:52:01.155Z,25.90
2023-05-21T14:53:37.106Z,25.81
2023-05-21T14:55:25.682Z,26.04
2023-05-21T14:56:50.297Z,26.03
2023-05-21T14:58:14.953Z,26.29
2023-05-21T14:59:51.183Z,26.34
2023-05-21T15:01:28.299Z,26.19
2023-05-21T15:03:13.620Z,26.95
2023-05-21T15:04:59.024Z,26.16
2023-05-21T15:06:44.333Z,26.35
2023-05-21T15:08:19.619Z,25.86
2023-05-21T15:09:56.293Z,25.94
2023-05-21T15:11:22.632Z,25.70
2023-05-21T15:12:56.286Z,25.82
2023-05-21T15:14:20.773Z,26.01
2023-05-21T15:15:56.761Z,26.33
2023-05-21T15:17:30.098Z,26.41
2023-05-21T15:19:03.834Z,26.54
2023-05-21T15:20:44.608Z,26.17
2023-05-21T15:22:28.027Z,26.00
2023-05-21T15:23:51.543Z,25.94
2023-05-21T15:25:34.134Z,25.93
2023-05-21T15:27:21.153Z,25.98
2023-05-21T15:29:15.021Z,26.21
2023-05-21T15:30:39.271Z,25.72
2023-05-21T15:32:14.961Z,25.58
2023-05-21T15:34:05.031Z,25.71
2023-05-21T15:35:50.257Z,25.32
2023-05-21T15:37:33.074Z,25.32
2023-05-21T15:39:03.568Z,25.21
2023-05-21T15:40:49.539Z,25.18
2023-05-21T15:42:16.204Z,24.97
2023-05-21T15:43:40.485Z,25.31
2023-05-21T15:45:10.032Z,25.26
2023-05-21T15:46:46.085Z,24.82
2023-05-21T15:48:22.517Z,25.05
2023-05-21T15:50:07.520Z,25.73
2023-05-21T15:51:48.403Z,25.82
2023-05-21T15:53:10.652Z,26.21
2023-05-21T15:54:44.345Z,26.37
2023-05-21T15:56:17.543Z,26.31
2023-05-21T15:57:39.732Z,26.46
2023-05-21T15:59:28.592Z,27.26
2023-05-21T16:01:04.748Z,27.44
2023-05-21T16:02:46.619Z,27.87
2023-05-21T16:04:19.985Z,28.22
2023-05-21T16:05:53.721Z,29.02
2023-05-21T16:07:24.781Z,28.93
2023-05-21T16:09:13.155Z,29.15
2023-05-21T16:10:49.691Z,29.29
2023-05-21T16:12:18.871Z,29.86
2023-05-21T16:13:40.685Z,30.55
2023-05-21T16:15:02.754Z,30.59
2023-05-21T16:16:36.713Z,30.98
2023-05-21T16:18:08.140Z,31.25
2023-05-21T16:19:29.724Z,31.58
2023-05-21T16:20:54.137Z,31.70
2023-05-21T16:22:20.186Z,31.96
2023-05-21T16:23:53.854Z,32.40
2023-05-21T16:25:20.919Z,32.84
2023-05-21T16:27:05.716Z,33.66
2023-05-21T16:28:46.578Z,33.45
2023-05-21T16:30:27.413Z,33.45
2023-05-21T16:32:03.206Z,34.19
2023-05-21T16:33:48.106Z,34.18
2023-05-21T16:35:33.164Z,34.87
2023-05-21T16:37:09.252Z,35.09
2023-05-21T16:38:31.281Z,35.60
2023-05-21T16:40:04.999Z,35.67
2023-05-21T16:41:55.087Z,35.59
2023-05-21T16:43:35.677Z,35.49
2023-05-21T16:45:20.839Z,36.57
2023-05-21T16:46:56.461Z,36.66
2023-05-21T16:48:29.775Z,36.95
2023-05-21T16:50:10.572Z,37.31
2023-05-21T16:51:32.297Z,37.40
2023-05-21T16:53:07.510Z,37.30
2023-05-21T16:54:52.474Z,37.35
2023-05-21T16:56:39.180Z,37.82
2023-05-21T16:58:26.345Z,39.07
2023-05-21T17:00:03.009Z,38.46
2023-05-21T17:01:48.405Z,39.41
2023-05-21T17:03:10.206Z,39.65
2023-05-21T17:04:46.123Z,39.93
2023-05-21T17:06:17.383Z,39.94
2023-05-21T17:07:48.560Z,39.80
2023-05-21T17:09:24.225Z,39.63
2023-05-21T17:10:58.307Z,40.33
2023-05-21T17:12:32.043Z,40.13
2023-05-21T17:14:05.729Z,40.37
2023-05-21T17:15:39.659Z,40.49
2023-05-21T17:17:24.794Z,41.07
2023-05-21T17:19:08.058Z,41.32
2023-05-21T17:20:43.765Z,41.71
2023-05-21T17:22:17.423Z,42.02
2023-05-21T17:26:10.461Z,42.18
2023-05-21T17:27:41.647Z,42.11
2023-05-21T17:29:26.701Z,42.23
2023-05-21T17:31:03.245Z,42.79
2023-05-21T17:32:48.176Z,43.00
2023-05-21T17:34:36.377Z,43.02
2023-05-21T17:36:24.470Z,43.16
2023-05-21T17:38:06.828Z,43.16
2023-05-21T17:39:40.336Z,43.14
2023-05-21T17:41:02.204Z,43.70
2023-05-21T17:42:47.137Z,43.96
2023-05-21T17:44:33.324Z,43.68
2023-05-21T17:46:13.824Z,43.96
2023-05-21T17:48:07.196Z,44.44
2023-05-21T17:49:52.564Z,44.34
2023-05-21T17:51:38.076Z,44.77
2023-05-21T17:53:14.054Z,45.05
2023-05-21T17:54:35.991Z,44.90
2023-05-21T17:56:25.235Z,45.42
2023-05-21T17:57:59.078Z,45.34
2023-05-21T17:59:33.263Z,45.79
2023-05-21T18:01:06.772Z,45.74
2023-05-21T18:02:35.973Z,46.24
2023-05-21T18:04:10.800Z,46.28
2023-05-21T18:05:33.004Z,46.24
2023-05-21T18:07:02.516Z,46.72
2023-05-21T18:08:24.654Z,46.71
2023-05-21T18:10:09.885Z,46.78
2023-05-21T18:12:03.037Z,46.79
2023-05-21T18:13:36.801Z,47.00
2023-05-21T18:15:13.176Z,47.14
2023-05-21T18:16:58.135Z,47.36
2023-05-21T18:18:21.509Z,47.79
2023-05-21T18:19:54.884Z,47.95
2023-05-21T18:21:30.724Z,47.88
2023-05-21T18:23:15.769Z,47.98
2023-05-21T18:24:51.245Z,48.20
2023-05-21T18:26:32.817Z,48.00
2023-05-21T18:28:10.606Z,48.13
2023-05-21T18:29:51.195Z,48.49
2023-05-21T18:31:34.141Z,48.78
2023-05-21T18:33:04.726Z,48.63
2023-05-21T18:34:49.370Z,49.46
2023-05-21T18:36:22.284Z,49.10
2023-05-21T18:37:51.248Z,49.17
2023-05-21T18:39:13.038Z,48.76
2023-05-21T18:40:46.967Z,49.54
2023-05-21T18:42:32.156Z,49.31
2023-05-21T18:44:17.671Z,49.69
2023-05-21T18:45:49.248Z,50.46
2023-05-21T18:47:11.531Z,50.09
2023-05-21T18:49:05.083Z,50.09
2023-05-21T18:50:31.745Z,50.44
2023-05-21T18:52:07.803Z,50.45
2023-05-21T18:53:29.431Z,51.12
2023-05-21T18:57:22.181Z,51.44
2023-05-21T18:59:07.832Z,51.27
2023-05-21T19:00:43.310Z,51.02
2023-05-21T19:02:29.714Z,51.20
2023-05-21T19:03:53.942Z,51.07
2023-05-21T19:05:38.996Z,51.00
2023-05-21T19:07:20.128Z,51.34
2023-05-21T19:08:44.703Z,52.00
2023-05-21T19:10:06.699Z,51.51
2023-05-21T19:11:35.830Z,51.74
2023-05-21T19:13:03.390Z,51.90
2023-05-21T19:14:38.557Z,52.06
2023-05-21T19:16:11.425Z,52.41
2023-05-21T19:17:35.019Z,52.15
2023-05-21T19:19:08.082Z,52.29
2023-05-21T19:20:41.823Z,52.22
2023-05-21T19:22:29.094Z,52.43
2023-05-21T19:24:06.347Z,53.00
2023-05-21T19:25:35.639Z,53.03
2023-05-21T19:27:12.277Z,53.21
2023-05-21T19:28:52.946Z,53.22
2023-05-21T19:30:26.927Z,53.25
2023-05-21T19:31:54.921Z,53.16
2023-05-21T19:33:28.641Z,53.54
2023-05-21T19:35:11.106Z,53.53
2023-05-21T19:36:53.324Z,53.90
2023-05-21T19:38:27.923Z,54.21
2023-05-21T19:39:57.044Z,54.28
2023-05-21T19:41:22.975Z,54.30
2023-05-21T19:43:04.719Z,54.46
2023-05-21T19:44:40.827Z,54.47
2023-05-21T19:46:20.058Z,54.61
2023-05-21T19:47:46.209Z,54.80
2023-05-21T19:49:33.693Z,55.19
2023-05-21T19:51:10.408Z,55.03
2023-05-21T19:52:44.145Z,55.16
2023-05-21T19:54:18.657Z,55.21
2023-05-21T19:56:05.657Z,55.32
2023-05-21T19:57:39.795Z,55.59
2023-05-21T19:59:26.336Z,55.71
2023-05-21T20:00:57.788Z,55.67
2023-05-21T20:02:28.719Z,56.08
2023-05-21T20:04:02.721Z,55.81
2023-05-21T20:05:36.110Z,56.06
2023-05-21T20:06:58.011Z,56.18
2023-05-21T20:08:20.593Z,56.09
2023-05-21T20:09:56.140Z,55.67
2023-05-21T20:11:29.512Z,56.08
2023-05-21T20:13:03.108Z,56.18
2023-05-21T20:14:33.562Z,56.27
2023-05-21T20:16:16.130Z,56.08
2023-05-21T20:17:42.913Z,56.55
2023-05-21T20:19:22.570Z,56.68
2023-05-21T20:20:54.037Z,56.88
2023-05-21T20:22:30.804Z,56.69
2023-05-21T20:23:52.427Z,56.56
2023-05-21T20:25:28.197Z,56.89
2023-05-21T20:26:49.916Z,56.94
2023-05-21T20:28:14.085Z,56.79
2023-05-21T20:30:09.089Z,56.50
2023-05-21T20:32:03.107Z,56.82
2023-05-21T20:33:41.086Z,57.26
2023-05-21T20:35:05.327Z,57.11
2023-05-21T20:36:36.869Z,57.30
2023-05-21T20:38:06.233Z,57.07
2023-05-21T20:39:30.701Z,57.40
2023-05-21T20:40:54.825Z,57.22
2023-05-21T20:42:36.638Z,57.42
2023-05-21T20:44:10.118Z,57.45
2023-05-21T20:45:45.148Z,57.67
2023-05-21T20:47:11.910Z,57.45
2023-05-21T20:48:45.637Z,57.79
2023-05-21T20:50:07.347Z,57.77
2023-05-21T20:51:29.021Z,57.47
2023-05-21T20:53:03.826Z,57.71
2023-05-21T20:54:32.987Z,57.56
2023-05-21T20:56:02.287Z,57.51
2023-05-21T20:57:36.032Z,57.70